createdAt,value
2022-09-03T00:00:39.768Z,84.94
2022-09-03T00:03:12.757Z,85.08
2022-09-03T00:05:57.670Z,86.98
2022-09-03T00:08:50.736Z,88.35
2022-09-03T00:11:43.604Z,86.34
2022-09-03T00:14:16.081Z,85.71
2022-09-03T00:16:45.898Z,86.96
2022-09-03T00:19:16.252Z,87.86
2022-09-03T00:21:49.699Z,89.07
2022-09-03T00:24:18.251Z,89.02
2022-09-03T00:26:47.180Z,89.06
2022-09-03T00:29:19.878Z,87.68
2022-09-03T00:31:59.644Z,88.56
2022-09-03T00:34:27.030Z,87.93
2022-09-03T00:36:53.878Z,87.42
2022-09-03T00:39:21.731Z,87.58
2022-09-03T00:41:48.388Z,87.87
2022-09-03T00:44:21.705Z,88.75
2022-09-03T00:46:57.327Z,88.19
2022-09-03T00:49:29.761Z,90.04
2022-09-03T00:51:59.339Z,89.73
2022-09-03T00:54:40.116Z,88.18
2022-09-03T00:57:27.854Z,87.82
2022-09-03T01:00:02.666Z,90.27
2022-09-03T01:02:56.785Z,90.57
2022-09-03T01:05:29.294Z,90.00
2022-09-03T01:08:15.846Z,89.63
2022-09-03T01:11:01.549Z,89.20
2022-09-03T01:13:39.807Z,89.36
2022-09-03T01:16:17.524Z,89.11
2022-09-03T01:18:48.111Z,89.48
2022-09-03T01:21:20.623Z,89.48
2022-09-03T01:23:53.655Z,89.79
2022-09-03T01:26:26.309Z,92.05
2022-09-03T01:28:56.748Z,92.32
2022-09-03T01:31:26.843Z,92.94
2022-09-03T01:34:05.884Z,94.16
2022-09-03T01:36:52.714Z,92.27
2022-09-03T01:39:25.544Z,93.96
2022-09-03T01:42:15.698Z,95.04
2022-09-03T01:45:01.850Z,95.73
2022-09-03T01:47:50.153Z,94.81
2022-09-03T01:50:36.945Z,93.55
2022-09-03T01:53:06.433Z,93.61
2022-09-03T01:55:51.722Z,93.43
2022-09-03T01:58:21.550Z,92.74
2022-09-03T02:00:53.297Z,92.86
2022-09-03T02:03:20.087Z,92.43
2022-09-03T02:05:47.794Z,93.93
2022-09-03T02:08:14.298Z,93.70
2022-09-03T02:10:40.783Z,92.24
2022-09-03T02:13:10.106Z,91.70
2022-09-03T02:15:38.272Z,91.29
2022-09-03T02:18:07.939Z,91.58
2022-09-03T02:20:34.794Z,91.93
2022-09-03T02:23:02.507Z,92.65
2022-09-03T02:25:30.589Z,92.82
2022-09-03T02:27:57.574Z,93.45
2022-09-03T02:30:24.441Z,93.06
2022-09-03T02:32:50.991Z,92.43
2022-09-03T02:35:18.174Z,91.92
2022-09-03T02:37:44.755Z,92.85
2022-09-03T02:40:12.089Z,93.65
2022-09-03T02:42:38.614Z,94.16
2022-09-03T02:45:14.094Z,95.31
2022-09-03T02:47:42.640Z,94.97
2022-09-03T02:50:09.486Z,93.44
2022-09-03T02:52:35.990Z,94.47
2022-09-03T02:55:02.517Z,95.14
2022-09-03T02:57:29.093Z,94.28
2022-09-03T02:59:55.635Z,94.03
2022-09-03T03:02:22.280Z,93.41
2022-09-03T03:04:49.139Z,94.43
2022-09-03T03:07:15.646Z,95.50
2022-09-03T03:09:42.154Z,95.39
2022-09-03T03:12:10.312Z,96.00
2022-09-03T03:14:36.841Z,95.07
2022-09-03T03:17:03.522Z,94.12
2022-09-03T03:19:30.069Z,93.91
2022-09-03T03:21:56.606Z,94.72
2022-09-03T03:24:23.098Z,93.90
2022-09-03T03:26:49.978Z,93.44
2022-09-03T03:29:17.894Z,93.57
2022-09-03T03:31:44.501Z,93.02
2022-09-03T03:34:11.128Z,92.47
2022-09-03T03:36:37.825Z,94.04
2022-09-03T03:39:04.401Z,95.96
2022-09-03T03:41:34.625Z,95.09
2022-09-03T03:44:02.982Z,94.19
2022-09-03T03:46:30.871Z,95.21
2022-09-03T03:48:57.468Z,95.70
2022-09-03T03:51:24.029Z,94.95
2022-09-03T03:53:53.670Z,94.75
2022-09-03T03:56:20.173Z,95.35
2022-09-03T03:58:48.467Z,95.05
2022-09-03T04:01:16.171Z,95.06
2022-09-03T04:03:43.083Z,94.68
2022-09-03T04:06:11.126Z,95.49
2022-09-03T04:08:39.645Z,94.70
2022-09-03T04:11:07.397Z,94.49
2022-09-03T04:13:35.538Z,96.08
2022-09-03T04:16:06.274Z,96.33
2022-09-03T04:18:33.907Z,97.95
2022-09-03T04:21:06.935Z,97.63
2022-09-03T04:23:34.476Z,98.35
2022-09-03T04:26:01.109Z,97.00
2022-09-03T04:28:27.810Z,96.76
2022-09-03T04:30:54.811Z,97.55
2022-09-03T04:33:21.360Z,98.22
2022-09-03T04:35:47.869Z,100.00
2022-09-03T04:38:15.241Z,100.00
2022-09-03T04:40:41.936Z,98.59
2022-09-03T04:43:08.497Z,98.40
2022-09-03T04:45:35.084Z,98.07
2022-09-03T04:48:02.461Z,97.24
2022-09-03T04:50:29.891Z,97.00
2022-09-03T04:53:07.645Z,96.61
2022-09-03T04:55:35.583Z,96.60
2022-09-03T04:58:02.227Z,96.98
2022-09-03T05:00:28.860Z,96.39
2022-09-03T05:02:55.421Z,95.66
2022-09-03T05:05:22.021Z,95.48
2022-09-03T05:07:48.740Z,94.59
2022-09-03T05:10:20.519Z,94.12
2022-09-03T05:12:48.527Z,94.57
2022-09-03T05:15:15.443Z,94.20
2022-09-03T05:17:41.953Z,93.80
2022-09-03T05:20:08.709Z,92.60
2022-09-03T05:22:35.329Z,91.02
2022-09-03T05:25:01.851Z,90.76
2022-09-03T05:27:28.524Z,89.87
2022-09-03T05:29:55.033Z,90.94
2022-09-03T05:32:21.627Z,90.65
2022-09-03T05:34:48.195Z,90.85
2022-09-03T05:37:14.778Z,90.89
2022-09-03T05:39:41.299Z,90.92
2022-09-03T05:42:07.830Z,90.91
2022-09-03T05:44:34.818Z,90.76
2022-09-03T05:47:01.318Z,90.80
2022-09-03T05:49:27.885Z,90.96
2022-09-03T05:51:54.432Z,89.22
2022-09-03T05:54:21.001Z,86.76
2022-09-03T05:56:47.535Z,87.34
2022-09-03T05:59:14.085Z,87.31
2022-09-03T06:01:45.824Z,88.37
2022-09-03T06:04:18.315Z,83.91
2022-09-03T06:06:45.581Z,82.45
2022-09-03T06:09:18.002Z,82.00
2022-09-03T06:11:45.534Z,81.63
2022-09-03T06:14:13.807Z,80.44
2022-09-03T06:16:41.574Z,80.75
2022-09-03T06:19:09.791Z,79.14
2022-09-03T06:21:37.168Z,79.52
2022-09-03T06:24:03.720Z,78.31
2022-09-03T06:26:30.239Z,76.20
2022-09-03T06:28:57.270Z,77.22
2022-09-03T06:31:24.318Z,72.12
2022-09-03T06:33:51.903Z,72.66
2022-09-03T06:36:19.399Z,70.06
2022-09-03T06:38:46.441Z,68.35
2022-09-03T06:41:14.421Z,65.71
2022-09-03T06:43:42.149Z,61.50
2022-09-03T06:46:10.928Z,59.71
2022-09-03T06:48:37.930Z,59.78
2022-09-03T06:51:06.840Z,64.76
2022-09-03T06:53:34.773Z,61.24
2022-09-03T06:56:02.770Z,60.79
2022-09-03T06:58:30.590Z,58.54
2022-09-03T07:01:07.630Z,56.62
2022-09-03T07:03:34.583Z,54.13
2022-09-03T07:06:01.975Z,53.19
2022-09-03T07:08:29.785Z,52.84
2022-09-03T07:10:56.356Z,53.00
2022-09-03T07:13:22.934Z,51.06
2022-09-03T07:15:57.748Z,52.46
2022-09-03T07:18:24.377Z,54.91
2022-09-03T07:20:50.927Z,55.50
2022-09-03T07:23:18.601Z,52.36
2022-09-03T07:25:52.213Z,50.82
2022-09-03T07:28:18.762Z,50.84
2022-09-03T07:30:45.230Z,52.73
2022-09-03T07:33:11.767Z,50.21
2022-09-03T07:35:38.645Z,48.35
2022-09-03T07:38:05.121Z,51.38
2022-09-03T07:40:33.213Z,49.17
2022-09-03T07:43:03.436Z,50.67
2022-09-03T07:45:30.566Z,50.36
2022-09-03T07:47:57.162Z,49.18
2022-09-03T07:50:23.995Z,47.36
2022-09-03T07:52:56.090Z,51.64
2022-09-03T07:55:22.645Z,49.60
2022-09-03T07:57:49.179Z,47.72
2022-09-03T08:00:15.981Z,48.57
2022-09-03T08:02:46.116Z,51.97
2022-09-03T08:05:13.067Z,49.22
2022-09-03T08:07:39.597Z,50.35
2022-09-03T08:10:08.427Z,48.64
2022-09-03T08:12:34.942Z,47.46
2022-09-03T08:15:01.524Z,46.01
2022-09-03T08:17:28.014Z,44.49
2022-09-03T08:19:55.874Z,43.54
2022-09-03T08:22:22.683Z,46.02
2022-09-03T08:24:49.299Z,47.63
2022-09-03T08:27:15.907Z,44.26
2022-09-03T08:29:42.411Z,44.62
2022-09-03T08:32:08.882Z,45.51
2022-09-03T08:34:35.633Z,45.38
2022-09-03T08:37:02.889Z,48.42
2022-09-03T08:39:29.574Z,44.66
2022-09-03T08:42:06.199Z,43.79
2022-09-03T08:44:32.705Z,45.75
2022-09-03T08:47:07.054Z,45.24
2022-09-03T08:49:48.879Z,45.34
2022-09-03T08:52:27.065Z,45.84
2022-09-03T08:54:58.422Z,46.42
2022-09-03T08:57:25.395Z,46.02
2022-09-03T08:59:54.824Z,44.94
2022-09-03T09:02:25.720Z,45.65
2022-09-03T09:05:14.409Z,44.87
2022-09-03T09:08:04.719Z,45.04
2022-09-03T09:10:40.636Z,45.76
2022-09-03T09:13:19.172Z,45.61
2022-09-03T09:16:04.892Z,43.22
2022-09-03T09:18:34.222Z,44.16
2022-09-03T09:21:21.539Z,46.36
2022-09-03T09:23:49.364Z,43.15
2022-09-03T09:26:17.663Z,42.41
2022-09-03T09:28:51.138Z,42.35
2022-09-03T09:31:19.072Z,43.14
2022-09-03T09:33:46.381Z,43.93
2022-09-03T09:36:17.601Z,41.99
2022-09-03T09:38:46.612Z,43.85
2022-09-03T09:41:15.485Z,42.81
2022-09-03T09:43:42.811Z,41.67
2022-09-03T09:46:13.286Z,45.27
2022-09-03T09:48:48.331Z,40.44
2022-09-03T09:51:19.792Z,41.46
2022-09-03T09:53:46.799Z,44.10
2022-09-03T09:56:23.072Z,41.35
2022-09-03T09:58:49.850Z,40.66
2022-09-03T10:01:23.470Z,39.57
2022-09-03T10:03:55.198Z,41.74
2022-09-03T10:06:48.176Z,44.26
2022-09-03T10:09:19.569Z,42.19
2022-09-03T10:11:50.853Z,43.41
2022-09-03T10:14:25.179Z,44.25
2022-09-03T10:16:56.099Z,43.12
2022-09-03T10:19:27.722Z,39.04
2022-09-03T10:22:03.018Z,42.64
2022-09-03T10:24:48.732Z,41.76
2022-09-03T10:27:17.555Z,39.32
2022-09-03T10:29:44.375Z,38.91
2022-09-03T10:32:29.067Z,38.58
2022-09-03T10:35:10.352Z,40.06
2022-09-03T10:37:38.934Z,39.30
2022-09-03T10:40:21.015Z,36.78
2022-09-03T10:42:47.560Z,35.28
2022-09-03T10:45:17.147Z,37.89
2022-09-03T10:47:56.028Z,37.95
2022-09-03T10:50:27.122Z,39.27
2022-09-03T10:52:56.628Z,42.07
2022-09-03T10:55:35.705Z,42.96
2022-09-03T10:58:03.219Z,40.86
2022-09-03T11:00:31.251Z,41.29
2022-09-03T11:03:15.164Z,40.45
2022-09-03T11:05:53.664Z,38.54
2022-09-03T11:08:30.451Z,37.45
2022-09-03T11:11:00.267Z,35.43
2022-09-03T11:13:35.842Z,34.92
2022-09-03T11:16:06.643Z,37.28
2022-09-03T11:18:38.725Z,35.86
2022-09-03T11:21:11.832Z,37.94
2022-09-03T11:23:41.602Z,38.93
2022-09-03T11:26:12.806Z,35.54
2022-09-03T11:28:48.232Z,36.58
2022-09-03T11:31:25.499Z,37.40
2022-09-03T11:33:59.813Z,37.26
2022-09-03T11:36:29.898Z,37.62
2022-09-03T11:38:56.663Z,36.95
2022-09-03T11:41:26.255Z,35.33
2022-09-03T11:43:54.362Z,35.00
2022-09-03T11:46:21.811Z,37.02
2022-09-03T11:48:49.749Z,34.31
2022-09-03T11:51:30.126Z,35.00
2022-09-03T11:54:02.103Z,34.14
2022-09-03T11:56:30.016Z,35.81
2022-09-03T11:59:01.388Z,35.22
2022-09-03T12:01:28.343Z,34.66
2022-09-03T12:03:58.441Z,34.13
2022-09-03T12:06:25.200Z,32.93
2022-09-03T12:08:54.715Z,34.56
2022-09-03T12:11:39.931Z,34.09
2022-09-03T12:14:19.750Z,41.41
2022-09-03T12:16:49.424Z,37.52
2022-09-03T12:19:25.740Z,36.22
2022-09-03T12:21:52.629Z,35.83
2022-09-03T12:24:20.231Z,34.85
2022-09-03T12:26:46.799Z,35.55
2022-09-03T12:29:26.652Z,35.00
2022-09-03T12:31:56.506Z,34.98
2022-09-03T12:34:23.784Z,35.34
2022-09-03T12:36:51.815Z,35.31
2022-09-03T12:39:18.974Z,34.86
2022-09-03T12:41:55.434Z,35.46
2022-09-03T12:44:29.881Z,38.84
2022-09-03T12:49:52.149Z,35.88
2022-09-03T12:52:18.647Z,38.57
2022-09-03T12:54:50.222Z,39.72
2022-09-03T12:57:19.793Z,36.72
2022-09-03T12:59:47.505Z,35.88
2022-09-03T13:02:18.091Z,37.03
2022-09-03T13:04:46.230Z,36.61
2022-09-03T13:07:23.720Z,38.43
2022-09-03T13:09:50.576Z,40.72
2022-09-03T13:12:28.540Z,38.72
2022-09-03T13:14:56.849Z,39.28
2022-09-03T13:17:30.362Z,39.82
2022-09-03T13:20:16.040Z,39.86
2022-09-03T13:22:42.542Z,38.59
2022-09-03T13:25:28.765Z,40.95
2022-09-03T13:28:07.545Z,40.67
2022-09-03T13:30:38.062Z,37.50
2022-09-03T13:33:17.332Z,39.71
2022-09-03T13:36:10.397Z,39.62
2022-09-03T13:38:43.947Z,39.52
2022-09-03T13:41:29.380Z,39.17
2022-09-03T13:43:58.897Z,39.79
2022-09-03T13:46:45.227Z,40.34
2022-09-03T13:49:36.523Z,38.59
2022-09-03T13:52:09.281Z,38.41
2022-09-03T13:54:49.170Z,37.88
2022-09-03T13:57:16.353Z,37.53
2022-09-03T14:00:02.142Z,38.49
2022-09-03T14:02:42.687Z,36.88
2022-09-03T14:05:28.073Z,37.12
2022-09-03T14:07:57.780Z,37.72
2022-09-03T14:10:31.038Z,38.96
2022-09-03T14:13:16.373Z,38.83
2022-09-03T14:16:05.259Z,38.37
2022-09-03T14:18:35.038Z,38.64
2022-09-03T14:21:07.739Z,39.51
2022-09-03T14:23:51.329Z,38.53
2022-09-03T14:26:44.256Z,38.22
2022-09-03T14:29:10.793Z,39.46
2022-09-03T14:31:37.279Z,39.66
2022-09-03T14:34:03.819Z,38.40
2022-09-03T14:36:35.874Z,39.78
2022-09-03T14:39:08.575Z,37.71
2022-09-03T14:41:55.497Z,38.93
2022-09-03T14:44:35.301Z,39.26
2022-09-03T14:47:01.823Z,39.66
2022-09-03T14:49:43.679Z,40.58
2022-09-03T14:52:13.190Z,40.70
2022-09-03T14:54:58.723Z,39.84
2022-09-03T14:57:37.545Z,39.46
2022-09-03T15:00:19.863Z,39.81
2022-09-03T15:02:51.990Z,39.79
2022-09-03T15:05:37.437Z,39.98
2022-09-03T15:08:16.799Z,41.33
2022-09-03T15:10:51.195Z,42.17
2022-09-03T15:13:30.887Z,41.21
2022-09-03T15:16:01.720Z,41.25
2022-09-03T15:18:47.155Z,41.40
2022-09-03T15:21:13.725Z,41.96
2022-09-03T15:23:40.264Z,40.62
2022-09-03T15:26:25.571Z,41.08
2022-09-03T15:29:11.377Z,40.12
2022-09-03T15:31:58.026Z,40.66
2022-09-03T15:34:35.552Z,42.06
2022-09-03T15:37:09.726Z,44.05
2022-09-03T15:39:39.092Z,42.92
2022-09-03T15:42:05.935Z,42.88
2022-09-03T15:44:38.674Z,43.63
2022-09-03T15:47:10.399Z,43.84
2022-09-03T15:49:44.630Z,43.69
2022-09-03T15:52:11.582Z,43.54
2022-09-03T15:54:44.146Z,43.82
2022-09-03T15:57:17.882Z,45.25
2022-09-03T16:00:07.416Z,44.43
2022-09-03T16:02:40.224Z,45.34
2022-09-03T16:05:26.024Z,46.07
2022-09-03T16:07:56.265Z,45.78
2022-09-03T16:10:32.635Z,45.31
2022-09-03T16:13:38.678Z,46.83
2022-09-03T16:16:06.858Z,45.60
2022-09-03T16:18:37.261Z,45.85
2022-09-03T16:21:22.734Z,46.04
2022-09-03T16:23:51.977Z,46.25
2022-09-03T16:26:18.435Z,46.34
2022-09-03T16:28:52.243Z,47.56
2022-09-03T16:31:18.748Z,48.02
2022-09-03T16:34:04.105Z,47.83
2022-09-03T16:36:49.511Z,47.93
2022-09-03T16:39:19.087Z,47.71
2022-09-03T16:41:56.241Z,47.10
2022-09-03T16:44:41.692Z,48.44
2022-09-03T16:47:08.233Z,47.94
2022-09-03T16:49:53.611Z,48.34
2022-09-03T16:52:37.867Z,47.58
2022-09-03T16:55:24.059Z,47.87
2022-09-03T16:58:08.420Z,48.73
2022-09-03T17:00:50.304Z,48.18
2022-09-03T17:03:29.261Z,49.35
2022-09-03T17:06:00.717Z,49.97
2022-09-03T17:08:36.638Z,49.81
2022-09-03T17:11:10.399Z,50.54
2022-09-03T17:13:46.689Z,50.70
2022-09-03T17:16:32.928Z,51.62
2022-09-03T17:18:59.646Z,51.68
2022-09-03T17:21:32.444Z,51.65
2022-09-03T17:24:23.433Z,50.66
2022-09-03T17:27:05.037Z,51.54
2022-09-03T17:29:31.498Z,53.18
2022-09-03T17:32:13.408Z,51.77
2022-09-03T17:34:39.933Z,51.68
2022-09-03T17:37:18.802Z,54.42
2022-09-03T17:39:52.128Z,60.31
2022-09-03T17:42:45.386Z,66.42
2022-09-03T17:45:15.549Z,64.68
2022-09-03T17:48:00.044Z,64.05
2022-09-03T17:50:28.234Z,64.67
2022-09-03T17:53:01.860Z,66.79
2022-09-03T17:55:41.979Z,67.05
2022-09-03T17:58:11.501Z,68.15
2022-09-03T18:00:42.054Z,68.59
2022-09-03T18:03:24.404Z,69.01
2022-09-03T18:06:00.977Z,69.92
2022-09-03T18:08:33.520Z,69.44
2022-09-03T18:11:05.960Z,68.56
2022-09-03T18:13:45.653Z,68.44
2022-09-03T18:16:16.774Z,68.85
2022-09-03T18:18:48.074Z,70.31
2022-09-03T18:21:38.765Z,70.82
2022-09-03T18:24:42.686Z,70.05
2022-09-03T18:27:33.653Z,70.54
2022-09-03T18:30:21.447Z,71.59
2022-09-03T18:33:07.167Z,71.49
2022-09-03T18:35:52.670Z,72.87
2022-09-03T18:38:42.419Z,72.68
2022-09-03T18:41:35.237Z,71.96
2022-09-03T18:44:38.863Z,73.22
2022-09-03T18:50:31.857Z,74.47
2022-09-03T18:53:40.299Z,74.26
2022-09-03T18:56:38.643Z,72.95
2022-09-03T18:59:23.898Z,73.86
2022-09-03T19:02:10.217Z,73.09
2022-09-03T19:05:07.959Z,73.84
2022-09-03T19:08:19.558Z,74.03
2022-09-03T19:11:15.928Z,75.41
2022-09-03T19:14:01.286Z,74.11
2022-09-03T19:17:19.772Z,75.59
2022-09-03T19:20:13.358Z,75.40
2022-09-03T19:22:59.153Z,74.09
2022-09-03T19:25:45.613Z,73.97
2022-09-03T19:28:33.924Z,73.52
2022-09-03T19:31:19.220Z,72.66
2022-09-03T19:34:30.806Z,72.44
2022-09-03T19:37:19.154Z,73.26
2022-09-03T19:40:04.622Z,73.56
2022-09-03T19:42:59.120Z,72.49
2022-09-03T19:45:50.122Z,74.21
2022-09-03T19:48:53.488Z,76.43
2022-09-03T19:51:54.051Z,77.03
2022-09-03T19:54:41.291Z,76.06
2022-09-03T19:57:27.457Z,77.16
2022-09-03T20:00:12.699Z,75.13
2022-09-03T20:02:59.460Z,75.88
2022-09-03T20:05:45.182Z,76.54
2022-09-03T20:08:34.879Z,76.04
2022-09-03T20:11:02.542Z,76.35
2022-09-03T20:13:48.998Z,75.69
2022-09-03T20:16:29.318Z,76.85
2022-09-03T20:19:04.190Z,78.29
2022-09-03T20:21:30.711Z,77.68
2022-09-03T20:24:03.288Z,77.42
2022-09-03T20:26:44.277Z,77.29
2022-09-03T20:29:19.926Z,76.16
2022-09-03T20:31:52.321Z,75.38
2022-09-03T20:34:37.366Z,74.87
2022-09-03T20:37:03.887Z,76.63
2022-09-03T20:39:44.348Z,75.94
2022-09-03T20:42:17.157Z,75.67
2022-09-03T20:44:49.722Z,77.07
2022-09-03T20:47:31.011Z,77.24
2022-09-03T20:50:09.975Z,79.43
2022-09-03T20:52:36.946Z,79.01
2022-09-03T20:55:07.021Z,78.97
2022-09-03T20:57:42.356Z,79.06
2022-09-03T21:00:13.904Z,79.09
2022-09-03T21:02:55.421Z,78.73
2022-09-03T21:05:25.397Z,78.93
2022-09-03T21:08:21.200Z,78.49
2022-09-03T21:10:48.471Z,77.88
2022-09-03T21:13:20.834Z,78.46
2022-09-03T21:15:55.889Z,77.56
2022-09-03T21:18:43.155Z,76.96
2022-09-03T21:21:21.905Z,78.09
2022-09-03T21:24:06.976Z,77.60
2022-09-03T21:26:39.878Z,77.79
2022-09-03T21:29:25.599Z,78.10
2022-09-03T21:31:53.938Z,79.32
2022-09-03T21:34:24.486Z,78.44
2022-09-03T21:36:51.497Z,77.38
2022-09-03T21:39:26.559Z,77.42
2022-09-03T21:41:56.208Z,77.98
2022-09-03T21:44:41.054Z,78.31
2022-09-03T21:47:18.589Z,76.51
2022-09-03T21:49:55.454Z,76.54
2022-09-03T21:52:31.529Z,76.54
2022-09-03T21:54:58.095Z,76.02
2022-09-03T21:57:37.308Z,76.56
2022-09-03T22:00:11.420Z,77.73
2022-09-03T22:02:40.617Z,78.05
2022-09-03T22:05:07.541Z,76.94
2022-09-03T22:07:43.228Z,76.82
2022-09-03T22:10:18.021Z,76.17
2022-09-03T22:13:00.694Z,77.23
2022-09-03T22:15:27.887Z,76.93
2022-09-03T22:17:59.653Z,78.60
2022-09-03T22:20:27.779Z,79.67
2022-09-03T22:22:59.143Z,79.63
2022-09-03T22:25:40.600Z,79.73
2022-09-03T22:28:10.068Z,78.02
2022-09-03T22:30:41.835Z,77.82
2022-09-03T22:33:19.014Z,77.53
2022-09-03T22:36:01.262Z,78.10
2022-09-03T22:38:38.738Z,77.92
2022-09-03T22:41:23.577Z,77.41
2022-09-03T22:43:58.848Z,76.90
2022-09-03T22:46:27.551Z,77.73
2022-09-03T22:49:12.593Z,78.32
2022-09-03T22:51:42.437Z,77.15
2022-09-03T22:54:21.246Z,77.25
2022-09-03T22:56:48.310Z,76.70
2022-09-03T22:59:26.045Z,76.05
2022-09-03T23:02:00.215Z,76.81
2022-09-03T23:04:39.015Z,78.86
2022-09-03T23:07:18.995Z,79.29
2022-09-03T23:09:55.889Z,80.46
2022-09-03T23:12:51.802Z,79.57
2022-09-03T23:15:30.214Z,80.54
2022-09-03T23:18:05.399Z,81.44
2022-09-03T23:20:34.612Z,81.43
2022-09-03T23:23:08.565Z,83.01
2022-09-03T23:25:37.608Z,86.05
2022-09-03T23:28:24.249Z,87.51
2022-09-03T23:30:50.955Z,79.18
2022-09-03T23:33:17.437Z,84.07
2022-09-03T23:35:52.289Z,83.78
2022-09-03T23:38:22.340Z,84.30
2022-09-03T23:40:50.017Z,85.22
2022-09-03T23:43:35.469Z,85.95
2022-09-03T23:46:04.854Z,86.75
2022-09-03T23:48:50.251Z,88.10
2022-09-03T23:51:37.285Z,91.97
2022-09-03T23:54:22.529Z,89.98
2022-09-03T23:56:52.017Z,91.04
2022-09-03T23:59:21.553Z,91.33
